sensor_id;sensor_type;location;lat;lon;timestamp;pressure;altitude;pressure_sealevel;temperature;humidity
23339;BME280;11841;49.368;20.962;2023-03-20T00:00:53;95773.91;;;3.44;71.11
23339;BME280;11841;49.368;20.962;2023-03-20T00:03:20;95780.13;;;3.43;71.28
23339;BME280;11841;49.368;20.962;2023-03-20T00:05:47;95767.84;;;3.43;70.81
23339;BME280;11841;49.368;20.962;2023-03-20T00:08:14;95767.03;;;3.43;70.60
23339;BME280;11841;49.368;20.962;2023-03-20T00:10:42;95768.84;;;3.42;70.80
23339;BME280;11841;49.368;20.962;2023-03-20T00:13:12;95766.53;;;3.47;70.98
23339;BME280;11841;49.368;20.962;2023-03-20T00:15:41;95760.66;;;3.45;71.48
23339;BME280;11841;49.368;20.962;2023-03-20T00:18:18;95767.84;;;3.43;72.04
23339;BME280;11841;49.368;20.962;2023-03-20T00:20:45;95765.72;;;3.47;71.51
23339;BME280;11841;49.368;20.962;2023-03-20T00:23:12;95767.69;;;3.45;71.32
23339;BME280;11841;49.368;20.962;2023-03-20T00:25:40;95772.28;;;3.43;71.08
23339;BME280;11841;49.368;20.962;2023-03-20T00:28:21;95766.41;;;3.41;71.50
23339;BME280;11841;49.368;20.962;2023-03-20T00:30:53;95762.50;;;3.37;71.89
23339;BME280;11841;49.368;20.962;2023-03-20T00:33:20;95756.41;;;3.36;71.78
23339;BME280;11841;49.368;20.962;2023-03-20T00:35:46;95753.97;;;3.35;71.91
23339;BME280;11841;49.368;20.962;2023-03-20T00:38:13;95745.63;;;3.31;71.44
23339;BME280;11841;49.368;20.962;2023-03-20T00:40:39;95754.69;;;3.29;72.51
23339;BME280;11841;49.368;20.962;2023-03-20T00:43:07;95752.06;;;3.29;72.43
23339;BME280;11841;49.368;20.962;2023-03-20T00:45:35;95750.69;;;3.33;71.90
23339;BME280;11841;49.368;20.962;2023-03-20T00:48:02;95748.72;;;3.35;71.92
23339;BME280;11841;49.368;20.962;2023-03-20T00:50:29;95749.09;;;3.32;71.89
23339;BME280;11841;49.368;20.962;2023-03-20T00:52:56;95748.59;;;3.28;71.52
23339;BME280;11841;49.368;20.962;2023-03-20T00:55:24;95751.41;;;3.27;72.03
23339;BME280;11841;49.368;20.962;2023-03-20T01:00:25;95745.34;;;3.26;71.97
23339;BME280;11841;49.368;20.962;2023-03-20T01:02:53;95750.75;;;3.25;71.58
23339;BME280;11841;49.368;20.962;2023-03-20T01:05:20;95750.09;;;3.23;72.31
23339;BME280;11841;49.368;20.962;2023-03-20T01:07:47;95747.66;;;3.21;72.09
23339;BME280;11841;49.368;20.962;2023-03-20T01:10:14;95747.31;;;3.24;71.55
23339;BME280;11841;49.368;20.962;2023-03-20T01:12:41;95745.69;;;3.23;72.15
23339;BME280;11841;49.368;20.962;2023-03-20T01:15:31;95744.22;;;3.21;71.99
23339;BME280;11841;49.368;20.962;2023-03-20T01:17:55;95740.13;;;3.18;72.07
23339;BME280;11841;49.368;20.962;2023-03-20T01:20:22;95752.41;;;3.18;72.55
23339;BME280;11841;49.368;20.962;2023-03-20T01:22:49;95752.41;;;3.18;71.95
23339;BME280;11841;49.368;20.962;2023-03-20T01:25:16;95755.38;;;3.15;72.03
23339;BME280;11841;49.368;20.962;2023-03-20T01:27:48;95761.63;;;3.14;72.55
23339;BME280;11841;49.368;20.962;2023-03-20T01:30:17;95756.69;;;3.11;72.51
23339;BME280;11841;49.368;20.962;2023-03-20T01:32:44;95758.84;;;3.07;73.04
23339;BME280;11841;49.368;20.962;2023-03-20T01:35:12;95755.91;;;3.02;72.75
23339;BME280;11841;49.368;20.962;2023-03-20T01:37:39;95763.28;;;2.99;72.58
23339;BME280;11841;49.368;20.962;2023-03-20T01:40:27;95763.47;;;2.97;72.57
23339;BME280;11841;49.368;20.962;2023-03-20T01:42:55;95764.94;;;3.00;72.91
23339;BME280;11841;49.368;20.962;2023-03-20T01:45:23;95768.53;;;2.99;72.22
23339;BME280;11841;49.368;20.962;2023-03-20T01:47:51;95769.69;;;2.96;72.48
23339;BME280;11841;49.368;20.962;2023-03-20T01:52:49;95769.91;;;2.87;73.01
23339;BME280;11841;49.368;20.962;2023-03-20T01:55:17;95767.09;;;2.88;73.14
23339;BME280;11841;49.368;20.962;2023-03-20T01:57:44;95766.94;;;2.90;72.96
23339;BME280;11841;49.368;20.962;2023-03-20T02:00:14;95760.03;;;2.89;72.86
23339;BME280;11841;49.368;20.962;2023-03-20T02:02:42;95756.31;;;2.83;72.86
23339;BME280;11841;49.368;20.962;2023-03-20T02:05:10;95754.50;;;2.84;73.48
23339;BME280;11841;49.368;20.962;2023-03-20T02:07:38;95751.88;;;2.84;73.24
23339;BME280;11841;49.368;20.962;2023-03-20T02:10:07;95751.56;;;2.79;73.23
23339;BME280;11841;49.368;20.962;2023-03-20T02:12:34;95752.91;;;2.75;73.38
23339;BME280;11841;49.368;20.962;2023-03-20T02:15:02;95751.44;;;2.72;73.67
23339;BME280;11841;49.368;20.962;2023-03-20T02:17:28;95756.66;;;2.72;73.64
23339;BME280;11841;49.368;20.962;2023-03-20T02:31:00;95747.97;;;2.72;73.98
23339;BME280;11841;49.368;20.962;2023-03-20T02:38:46;95751.25;;;2.74;74.63
23339;BME280;11841;49.368;20.962;2023-03-20T02:41:30;95746.50;;;2.77;74.56
23339;BME280;11841;49.368;20.962;2023-03-20T02:46:33;95744.38;;;2.81;74.78
23339;BME280;11841;49.368;20.962;2023-03-20T02:49:08;95750.25;;;2.83;75.03
23339;BME280;11841;49.368;20.962;2023-03-20T02:51:39;95746.34;;;2.79;75.40
23339;BME280;11841;49.368;20.962;2023-03-20T02:54:12;95743.88;;;2.77;75.74
23339;BME280;11841;49.368;20.962;2023-03-20T02:56:57;95742.75;;;2.80;75.30
23339;BME280;11841;49.368;20.962;2023-03-20T02:59:32;95738.31;;;2.80;75.82
23339;BME280;11841;49.368;20.962;2023-03-20T03:02:04;95745.19;;;2.81;75.56
23339;BME280;11841;49.368;20.962;2023-03-20T03:04:39;95741.41;;;2.84;75.60
23339;BME280;11841;49.368;20.962;2023-03-20T03:07:07;95748.13;;;2.86;75.65
23339;BME280;11841;49.368;20.962;2023-03-20T03:09:48;95746.47;;;2.85;75.40
23339;BME280;11841;49.368;20.962;2023-03-20T03:12:17;95740.44;;;2.85;75.93
23339;BME280;11841;49.368;20.962;2023-03-20T03:14:50;95737.81;;;2.85;75.64
23339;BME280;11841;49.368;20.962;2023-03-20T03:17:18;95733.25;;;2.87;75.82
23339;BME280;11841;49.368;20.962;2023-03-20T03:19:48;95732.59;;;2.85;76.61
23339;BME280;11841;49.368;20.962;2023-03-20T03:22:16;95735.22;;;2.85;75.95
23339;BME280;11841;49.368;20.962;2023-03-20T03:24:44;95733.38;;;2.85;76.47
23339;BME280;11841;49.368;20.962;2023-03-20T03:27:16;95731.25;;;2.89;75.82
23339;BME280;11841;49.368;20.962;2023-03-20T03:29:45;95726.66;;;2.91;75.51
23339;BME280;11841;49.368;20.962;2023-03-20T03:32:28;95728.31;;;2.92;75.48
23339;BME280;11841;49.368;20.962;2023-03-20T03:34:56;95726.66;;;2.91;75.46
23339;BME280;11841;49.368;20.962;2023-03-20T03:37:28;95730.44;;;2.88;75.52
23339;BME280;11841;49.368;20.962;2023-03-20T03:45:11;95723.91;;;2.84;76.14
23339;BME280;11841;49.368;20.962;2023-03-20T03:47:49;95720.94;;;2.87;75.84
23339;BME280;11841;49.368;20.962;2023-03-20T03:52:45;95720.16;;;2.87;75.47
23339;BME280;11841;49.368;20.962;2023-03-20T03:55:18;95720.78;;;2.89;74.91
23339;BME280;11841;49.368;20.962;2023-03-20T03:57:51;95719.66;;;2.83;74.93
23339;BME280;11841;49.368;20.962;2023-03-20T04:00:20;95725.06;;;2.82;75.27
23339;BME280;11841;49.368;20.962;2023-03-20T04:02:50;95726.19;;;2.87;75.32
23339;BME280;11841;49.368;20.962;2023-03-20T04:05:18;95732.41;;;2.86;74.48
23339;BME280;11841;49.368;20.962;2023-03-20T04:07:46;95741.09;;;2.79;74.31
23339;BME280;11841;49.368;20.962;2023-03-20T04:10:13;95739.81;;;2.75;74.80
23339;BME280;11841;49.368;20.962;2023-03-20T04:12:41;95741.78;;;2.73;74.68
23339;BME280;11841;49.368;20.962;2023-03-20T04:15:08;95739.66;;;2.68;74.63
23339;BME280;11841;49.368;20.962;2023-03-20T04:17:34;95735.25;;;2.61;74.89
23339;BME280;11841;49.368;20.962;2023-03-20T04:20:02;95741.81;;;2.57;74.97
23339;BME280;11841;49.368;20.962;2023-03-20T04:22:29;95743.16;;;2.53;75.45
23339;BME280;11841;49.368;20.962;2023-03-20T04:24:56;95747.72;;;2.51;75.42
23339;BME280;11841;49.368;20.962;2023-03-20T04:27:23;95748.53;;;2.51;75.33
23339;BME280;11841;49.368;20.962;2023-03-20T04:29:50;95752.97;;;2.51;74.87
23339;BME280;11841;49.368;20.962;2023-03-20T04:32:16;95751.63;;;2.46;75.71
23339;BME280;11841;49.368;20.962;2023-03-20T04:34:43;95755.59;;;2.42;75.10
23339;BME280;11841;49.368;20.962;2023-03-20T04:37:09;95768.69;;;2.42;75.01
23339;BME280;11841;49.368;20.962;2023-03-20T04:39:35;95760.00;;;2.42;75.04
23339;BME280;11841;49.368;20.962;2023-03-20T04:42:03;95757.56;;;2.40;75.89
23339;BME280;11841;49.368;20.962;2023-03-20T04:44:29;95754.28;;;2.38;75.34
23339;BME280;11841;49.368;20.962;2023-03-20T04:46:56;95752.66;;;2.37;75.70
23339;BME280;11841;49.368;20.962;2023-03-20T04:49:23;95757.56;;;2.40;76.04
23339;BME280;11841;49.368;20.962;2023-03-20T04:51:49;95756.56;;;2.41;76.02
23339;BME280;11841;49.368;20.962;2023-03-20T04:54:16;95755.09;;;2.39;76.13
23339;BME280;11841;49.368;20.962;2023-03-20T04:56:43;95760.34;;;2.39;76.32
23339;BME280;11841;49.368;20.962;2023-03-20T04:59:09;95753.94;;;2.41;76.11
23339;BME280;11841;49.368;20.962;2023-03-20T05:01:36;95765.41;;;2.40;76.57
23339;BME280;11841;49.368;20.962;2023-03-20T05:04:02;95762.44;;;2.43;76.68
23339;BME280;11841;49.368;20.962;2023-03-20T05:06:29;95762.09;;;2.46;76.72
23339;BME280;11841;49.368;20.962;2023-03-20T05:08:57;95763.91;;;2.54;76.77
23339;BME280;11841;49.368;20.962;2023-03-20T05:11:24;95758.50;;;2.56;76.39
23339;BME280;11841;49.368;20.962;2023-03-20T05:13:51;95762.25;;;2.53;76.84
23339;BME280;11841;49.368;20.962;2023-03-20T05:16:18;95763.75;;;2.56;77.30
23339;BME280;11841;49.368;20.962;2023-03-20T05:18:44;95752.75;;;2.60;77.28
23339;BME280;11841;49.368;20.962;2023-03-20T05:21:11;95761.28;;;2.62;77.32
23339;BME280;11841;49.368;20.962;2023-03-20T05:23:37;95759.31;;;2.64;76.86
23339;BME280;11841;49.368;20.962;2023-03-20T05:26:04;95760.44;;;2.70;76.72
23339;BME280;11841;49.368;20.962;2023-03-20T05:28:30;95768.94;;;2.72;76.78
23339;BME280;11841;49.368;20.962;2023-03-20T05:30:57;95768.31;;;2.70;77.19
23339;BME280;11841;49.368;20.962;2023-03-20T05:33:23;95760.94;;;2.73;77.68
23339;BME280;11841;49.368;20.962;2023-03-20T05:35:50;95762.88;;;2.79;76.97
23339;BME280;11841;49.368;20.962;2023-03-20T05:38:17;95761.38;;;2.85;76.66
23339;BME280;11841;49.368;20.962;2023-03-20T05:40:48;95758.78;;;2.85;77.40
23339;BME280;11841;49.368;20.962;2023-03-20T05:43:14;95760.03;;;2.89;77.33
23339;BME280;11841;49.368;20.962;2023-03-20T05:45:41;95762.50;;;2.90;76.68
23339;BME280;11841;49.368;20.962;2023-03-20T05:48:08;95772.00;;;2.91;77.56
23339;BME280;11841;49.368;20.962;2023-03-20T05:50:34;95771.81;;;2.93;78.29
23339;BME280;11841;49.368;20.962;2023-03-20T05:53:01;95762.00;;;2.95;77.90
23339;BME280;11841;49.368;20.962;2023-03-20T05:55:30;95756.25;;;2.99;78.42
23339;BME280;11841;49.368;20.962;2023-03-20T05:57:58;95765.09;;;2.98;79.21
23339;BME280;11841;49.368;20.962;2023-03-20T06:00:25;95762.00;;;2.95;78.97
23339;BME280;11841;49.368;20.962;2023-03-20T06:02:51;95754.47;;;3.00;78.40
23339;BME280;11841;49.368;20.962;2023-03-20T06:05:18;95758.34;;;3.04;78.55
23339;BME280;11841;49.368;20.962;2023-03-20T06:07:44;95760.66;;;3.07;78.73
23339;BME280;11841;49.368;20.962;2023-03-20T06:10:11;95753.09;;;3.12;77.88
23339;BME280;11841;49.368;20.962;2023-03-20T06:12:37;95758.00;;;3.15;78.47
23339;BME280;11841;49.368;20.962;2023-03-20T06:15:04;95760.09;;;3.19;78.15
23339;BME280;11841;49.368;20.962;2023-03-20T06:17:30;95759.44;;;3.25;78.11
23339;BME280;11841;49.368;20.962;2023-03-20T06:19:57;95761.53;;;3.30;79.05
23339;BME280;11841;49.368;20.962;2023-03-20T06:22:23;95766.47;;;3.25;79.48
23339;BME280;11841;49.368;20.962;2023-03-20T06:24:50;95768.09;;;3.26;79.34
23339;BME280;11841;49.368;20.962;2023-03-20T06:27:17;95771.03;;;3.31;79.49
23339;BME280;11841;49.368;20.962;2023-03-20T06:29:43;95772.78;;;3.38;78.58
23339;BME280;11841;49.368;20.962;2023-03-20T06:32:10;95771.94;;;3.46;78.27
23339;BME280;11841;49.368;20.962;2023-03-20T06:34:37;95778.16;;;3.45;80.46
23339;BME280;11841;49.368;20.962;2023-03-20T06:37:04;95777.50;;;3.43;81.29
23339;BME280;11841;49.368;20.962;2023-03-20T06:39:30;95776.72;;;3.42;80.12
23339;BME280;11841;49.368;20.962;2023-03-20T06:41:57;95776.84;;;3.49;79.94
23339;BME280;11841;49.368;20.962;2023-03-20T06:44:24;95785.00;;;3.54;81.18
23339;BME280;11841;49.368;20.962;2023-03-20T06:46:50;95788.28;;;3.56;80.19
23339;BME280;11841;49.368;20.962;2023-03-20T06:49:17;95786.63;;;3.55;81.69
23339;BME280;11841;49.368;20.962;2023-03-20T06:51:43;95792.53;;;3.57;81.35
23339;BME280;11841;49.368;20.962;2023-03-20T06:54:12;95783.34;;;3.61;81.06
23339;BME280;11841;49.368;20.962;2023-03-20T06:56:39;95781.50;;;3.61;81.51
23339;BME280;11841;49.368;20.962;2023-03-20T06:59:06;95788.06;;;3.65;81.47
23339;BME280;11841;49.368;20.962;2023-03-20T07:01:32;95788.53;;;3.69;81.78
23339;BME280;11841;49.368;20.962;2023-03-20T07:03:59;95779.34;;;3.73;81.13
23339;BME280;11841;49.368;20.962;2023-03-20T07:06:26;95773.75;;;3.76;81.78
23339;BME280;11841;49.368;20.962;2023-03-20T07:08:53;95775.84;;;3.81;81.13
23339;BME280;11841;49.368;20.962;2023-03-20T07:11:20;95778.25;;;3.90;79.88
23339;BME280;11841;49.368;20.962;2023-03-20T07:13:46;95778.53;;;3.95;80.46
23339;BME280;11841;49.368;20.962;2023-03-20T07:16:15;95783.44;;;3.98;81.06
23339;BME280;11841;49.368;20.962;2023-03-20T07:18:42;95779.44;;;4.02;80.43
23339;BME280;11841;49.368;20.962;2023-03-20T07:21:09;95776.97;;;4.09;80.34
23339;BME280;11841;49.368;20.962;2023-03-20T07:23:36;95775.44;;;4.14;80.10
23339;BME280;11841;49.368;20.962;2023-03-20T07:26:03;95781.44;;;4.23;79.07
23339;BME280;11841;49.368;20.962;2023-03-20T07:28:30;95788.78;;;4.27;79.20
23339;BME280;11841;49.368;20.962;2023-03-20T07:30:57;95788.44;;;4.30;79.58
23339;BME280;11841;49.368;20.962;2023-03-20T07:33:23;95792.66;;;4.39;79.11
23339;BME280;11841;49.368;20.962;2023-03-20T07:35:53;95796.88;;;4.40;80.26
23339;BME280;11841;49.368;20.962;2023-03-20T07:38:20;95806.66;;;4.46;79.20
23339;BME280;11841;49.368;20.962;2023-03-20T07:40:47;95813.50;;;4.55;78.69
23339;BME280;11841;49.368;20.962;2023-03-20T07:43:14;95810.78;;;4.63;78.27
23339;BME280;11841;49.368;20.962;2023-03-20T07:45:41;95804.47;;;4.72;77.83
23339;BME280;11841;49.368;20.962;2023-03-20T07:48:08;95800.16;;;4.79;78.07
23339;BME280;11841;49.368;20.962;2023-03-20T07:50:34;95797.06;;;4.90;78.00
23339;BME280;11841;49.368;20.962;2023-03-20T07:53:01;95799.63;;;4.99;77.65
23339;BME280;11841;49.368;20.962;2023-03-20T07:55:28;95793.91;;;5.10;77.50
23339;BME280;11841;49.368;20.962;2023-03-20T07:57:55;95787.41;;;5.20;77.56
23339;BME280;11841;49.368;20.962;2023-03-20T08:00:21;95790.38;;;5.32;76.81
23339;BME280;11841;49.368;20.962;2023-03-20T08:02:48;95777.56;;;5.43;76.16
23339;BME280;11841;49.368;20.962;2023-03-20T08:05:15;95772.06;;;5.53;76.04
23339;BME280;11841;49.368;20.962;2023-03-20T08:07:41;95766.94;;;5.66;75.16
23339;BME280;11841;49.368;20.962;2023-03-20T08:10:10;95772.16;;;5.80;74.24
23339;BME280;11841;49.368;20.962;2023-03-20T08:12:37;95768.25;;;5.91;73.97
23339;BME280;11841;49.368;20.962;2023-03-20T08:15:03;95763.25;;;5.96;73.45
23339;BME280;11841;49.368;20.962;2023-03-20T08:17:30;95768.56;;;6.02;73.86
23339;BME280;11841;49.368;20.962;2023-03-20T08:19:57;95757.75;;;6.12;73.59
23339;BME280;11841;49.368;20.962;2023-03-20T08:22:23;95765.97;;;6.24;73.01
23339;BME280;11841;49.368;20.962;2023-03-20T08:24:50;95768.06;;;6.35;72.24
23339;BME280;11841;49.368;20.962;2023-03-20T08:27:17;95758.84;;;6.45;71.68
23339;BME280;11841;49.368;20.962;2023-03-20T08:29:43;95761.78;;;6.57;71.71
23339;BME280;11841;49.368;20.962;2023-03-20T08:32:10;95755.81;;;6.69;70.58
23339;BME280;11841;49.368;20.962;2023-03-20T08:34:36;95750.63;;;6.82;70.82
23339;BME280;11841;49.368;20.962;2023-03-20T08:37:03;95749.50;;;6.98;70.25
23339;BME280;11841;49.368;20.962;2023-03-20T08:39:30;95752.81;;;7.06;70.70
23339;BME280;11841;49.368;20.962;2023-03-20T08:41:58;95747.59;;;7.19;70.17
23339;BME280;11841;49.368;20.962;2023-03-20T08:44:26;95754.19;;;7.36;70.08
23339;BME280;11841;49.368;20.962;2023-03-20T08:46:53;95750.16;;;7.41;69.26
23339;BME280;11841;49.368;20.962;2023-03-20T08:49:20;95744.16;;;7.60;68.32
23339;BME280;11841;49.368;20.962;2023-03-20T08:51:46;95738.09;;;7.72;68.45
23339;BME280;11841;49.368;20.962;2023-03-20T08:54:13;95747.91;;;7.85;67.55
23339;BME280;11841;49.368;20.962;2023-03-20T08:56:41;95747.94;;;8.04;66.60
23339;BME280;11841;49.368;20.962;2023-03-20T08:59:07;95751.81;;;8.21;66.12
23339;BME280;11841;49.368;20.962;2023-03-20T09:01:34;95749.03;;;8.29;66.14
23339;BME280;11841;49.368;20.962;2023-03-20T09:04:14;95749.47;;;8.52;64.15
23339;BME280;11841;49.368;20.962;2023-03-20T09:06:41;95742.53;;;8.71;63.35
23339;BME280;11841;49.368;20.962;2023-03-20T09:09:07;95738.88;;;8.85;63.09
23339;BME280;11841;49.368;20.962;2023-03-20T09:11:35;95746.16;;;9.03;62.28
23339;BME280;11841;49.368;20.962;2023-03-20T09:14:02;95743.06;;;9.25;62.24
23339;BME280;11841;49.368;20.962;2023-03-20T09:16:28;95746.25;;;9.47;60.08
23339;BME280;11841;49.368;20.962;2023-03-20T09:18:55;95747.81;;;9.67;59.64
23339;BME280;11841;49.368;20.962;2023-03-20T09:21:22;95743.72;;;9.71;58.38
23339;BME280;11841;49.368;20.962;2023-03-20T09:23:48;95741.63;;;9.87;58.37
23339;BME280;11841;49.368;20.962;2023-03-20T09:26:14;95739.94;;;9.99;58.75
23339;BME280;11841;49.368;20.962;2023-03-20T09:28:42;95741.13;;;10.09;58.38
23339;BME280;11841;49.368;20.962;2023-03-20T09:31:08;95741.25;;;10.21;56.10
23339;BME280;11841;49.368;20.962;2023-03-20T09:33:34;95728.31;;;10.37;56.83
23339;BME280;11841;49.368;20.962;2023-03-20T09:36:01;95729.88;;;10.45;56.54
23339;BME280;11841;49.368;20.962;2023-03-20T09:38:28;95725.34;;;10.52;56.63
23339;BME280;11841;49.368;20.962;2023-03-20T09:40:55;95722.88;;;10.57;56.30
23339;BME280;11841;49.368;20.962;2023-03-20T09:46:13;95731.41;;;10.83;55.28
23339;BME280;11841;49.368;20.962;2023-03-20T09:53:43;95709.50;;;11.13;52.40
23339;BME280;11841;49.368;20.962;2023-03-20T09:56:22;95713.28;;;11.23;52.57
23339;BME280;11841;49.368;20.962;2023-03-20T09:58:52;95714.00;;;11.30;53.41
23339;BME280;11841;49.368;20.962;2023-03-20T10:01:19;95712.22;;;11.42;52.54
23339;BME280;11841;49.368;20.962;2023-03-20T10:03:57;95702.94;;;11.51;53.00
23339;BME280;11841;49.368;20.962;2023-03-20T10:06:25;95705.06;;;11.61;52.62
23339;BME280;11841;49.368;20.962;2023-03-20T10:08:52;95701.47;;;11.73;52.01
23339;BME280;11841;49.368;20.962;2023-03-20T10:19:26;95692.75;;;12.14;52.07
23339;BME280;11841;49.368;20.962;2023-03-20T10:22:16;95692.88;;;12.19;51.37
23339;BME280;11841;49.368;20.962;2023-03-20T10:24:41;95694.31;;;12.33;50.26
23339;BME280;11841;49.368;20.962;2023-03-20T10:27:15;95694.22;;;12.51;50.96
23339;BME280;11841;49.368;20.962;2023-03-20T10:29:50;95690.88;;;12.56;49.45
23339;BME280;11841;49.368;20.962;2023-03-20T10:32:22;95688.13;;;12.62;50.87
23339;BME280;11841;49.368;20.962;2023-03-20T10:37:55;95684.66;;;12.85;50.22
23339;BME280;11841;49.368;20.962;2023-03-20T10:40:22;95685.94;;;12.94;49.57
23339;BME280;11841;49.368;20.962;2023-03-20T10:42:50;95679.66;;;13.00;47.77
23339;BME280;11841;49.368;20.962;2023-03-20T10:47:50;95678.19;;;13.15;47.65
23339;BME280;11841;49.368;20.962;2023-03-20T10:50:18;95674.38;;;13.23;48.30
23339;BME280;11841;49.368;20.962;2023-03-20T10:52:47;95675.50;;;13.27;48.47
23339;BME280;11841;49.368;20.962;2023-03-20T10:55:15;95667.31;;;13.28;46.06
23339;BME280;11841;49.368;20.962;2023-03-20T10:57:45;95662.66;;;13.35;47.24
23339;BME280;11841;49.368;20.962;2023-03-20T11:00:20;95668.31;;;13.51;48.09
23339;BME280;11841;49.368;20.962;2023-03-20T11:02:47;95662.38;;;13.60;49.01
23339;BME280;11841;49.368;20.962;2023-03-20T11:07:50;95667.69;;;13.88;46.75
23339;BME280;11841;49.368;20.962;2023-03-20T11:10:26;95653.44;;;13.94;44.95
23339;BME280;11841;49.368;20.962;2023-03-20T11:12:53;95651.69;;;14.00;46.58
23339;BME280;11841;49.368;20.962;2023-03-20T11:15:21;95656.28;;;14.04;44.71
23339;BME280;11841;49.368;20.962;2023-03-20T11:17:56;95654.34;;;14.00;45.30
23339;BME280;11841;49.368;20.962;2023-03-20T11:20:23;95652.41;;;14.12;45.38
23339;BME280;11841;49.368;20.962;2023-03-20T11:22:56;95652.94;;;14.25;45.34
23339;BME280;11841;49.368;20.962;2023-03-20T11:25:48;95644.38;;;14.23;43.75
23339;BME280;11841;49.368;20.962;2023-03-20T11:31:05;95642.94;;;14.32;43.45
23339;BME280;11841;49.368;20.962;2023-03-20T11:33:33;95637.06;;;14.47;43.40
23339;BME280;11841;49.368;20.962;2023-03-20T11:36:04;95639.25;;;14.50;43.27
23339;BME280;11841;49.368;20.962;2023-03-20T11:38:35;95623.41;;;14.43;42.00
23339;BME280;11841;49.368;20.962;2023-03-20T11:41:18;95625.56;;;14.46;41.38
23339;BME280;11841;49.368;20.962;2023-03-20T11:43:45;95625.91;;;14.50;43.12
23339;BME280;11841;49.368;20.962;2023-03-20T11:46:11;95623.63;;;14.59;42.95
23339;BME280;11841;49.368;20.962;2023-03-20T11:48:39;95615.78;;;14.69;42.73
23339;BME280;11841;49.368;20.962;2023-03-20T11:51:07;95623.44;;;14.82;42.90
23339;BME280;11841;49.368;20.962;2023-03-20T11:53:38;95615.25;;;14.88;41.54
23339;BME280;11841;49.368;20.962;2023-03-20T11:58:32;95613.59;;;14.82;41.65
23339;BME280;11841;49.368;20.962;2023-03-20T12:01:00;95606.88;;;14.80;42.42
23339;BME280;11841;49.368;20.962;2023-03-20T12:03:33;95601.53;;;14.80;42.21
23339;BME280;11841;49.368;20.962;2023-03-20T12:06:04;95609.47;;;14.91;41.94
23339;BME280;11841;49.368;20.962;2023-03-20T12:08:31;95603.63;;;14.94;43.23
23339;BME280;11841;49.368;20.962;2023-03-20T12:11:02;95600.31;;;14.87;41.82
23339;BME280;11841;49.368;20.962;2023-03-20T12:13:32;95592.56;;;14.86;42.62
23339;BME280;11841;49.368;20.962;2023-03-20T12:16:02;95589.38;;;14.89;42.35
23339;BME280;11841;49.368;20.962;2023-03-20T12:18:45;95588.63;;;14.93;42.16
23339;BME280;11841;49.368;20.962;2023-03-20T12:21:17;95589.53;;;14.99;41.73
23339;BME280;11841;49.368;20.962;2023-03-20T12:23:52;95589.84;;;15.02;42.28
23339;BME280;11841;49.368;20.962;2023-03-20T12:26:23;95586.84;;;14.99;40.51
23339;BME280;11841;49.368;20.962;2023-03-20T12:29:11;95592.56;;;14.86;40.96
23339;BME280;11841;49.368;20.962;2023-03-20T12:31:45;95592.16;;;14.77;40.57
23339;BME280;11841;49.368;20.962;2023-03-20T12:34:14;95585.28;;;14.81;41.60
23339;BME280;11841;49.368;20.962;2023-03-20T12:36:44;95581.94;;;14.91;42.21
23339;BME280;11841;49.368;20.962;2023-03-20T12:39:16;95576.09;;;14.94;42.26
23339;BME280;11841;49.368;20.962;2023-03-20T12:44:34;95567.00;;;15.33;40.84
23339;BME280;11841;49.368;20.962;2023-03-20T13:00:33;95565.34;;;15.75;40.73
23339;BME280;11841;49.368;20.962;2023-03-20T13:05:40;95573.97;;;15.55;39.10
23339;BME280;11841;49.368;20.962;2023-03-20T13:10:38;95581.97;;;15.34;39.17
23339;BME280;11841;49.368;20.962;2023-03-20T13:15:40;95572.41;;;15.38;40.32
23339;BME280;11841;49.368;20.962;2023-03-20T13:20:51;95569.25;;;15.41;40.27
23339;BME280;11841;49.368;20.962;2023-03-20T13:23:22;95568.22;;;15.42;39.92
23339;BME280;11841;49.368;20.962;2023-03-20T13:28:51;95564.47;;;15.43;40.68
23339;BME280;11841;49.368;20.962;2023-03-20T13:34:39;95558.00;;;15.39;40.90
23339;BME280;11841;49.368;20.962;2023-03-20T13:37:12;95555.41;;;15.44;41.24
23339;BME280;11841;49.368;20.962;2023-03-20T13:42:33;95551.97;;;15.48;40.60
23339;BME280;11841;49.368;20.962;2023-03-20T13:45:06;95558.41;;;15.47;39.86
23339;BME280;11841;49.368;20.962;2023-03-20T13:47:37;95560.75;;;15.44;40.00
23339;BME280;11841;49.368;20.962;2023-03-20T13:52:33;95558.16;;;15.49;41.35
23339;BME280;11841;49.368;20.962;2023-03-20T13:57:58;95551.72;;;15.50;40.16
23339;BME280;11841;49.368;20.962;2023-03-20T14:00:34;95552.75;;;15.44;40.42
23339;BME280;11841;49.368;20.962;2023-03-20T14:03:14;95548.44;;;15.43;41.27
23339;BME280;11841;49.368;20.962;2023-03-20T14:05:42;95552.75;;;15.44;41.15
23339;BME280;11841;49.368;20.962;2023-03-20T14:10:53;95553.59;;;15.28;41.26
23339;BME280;11841;49.368;20.962;2023-03-20T14:13:20;95562.91;;;15.25;42.32
23339;BME280;11841;49.368;20.962;2023-03-20T14:15:52;95564.97;;;15.18;42.49
23339;BME280;11841;49.368;20.962;2023-03-20T14:18:21;95556.31;;;15.11;42.63
23339;BME280;11841;49.368;20.962;2023-03-20T14:20:55;95557.22;;;15.17;43.02
23339;BME280;11841;49.368;20.962;2023-03-20T14:23:28;95558.19;;;15.11;42.97
23339;BME280;11841;49.368;20.962;2023-03-20T14:25:57;95560.28;;;15.09;43.14
23339;BME280;11841;49.368;20.962;2023-03-20T14:28:26;95563.13;;;15.02;43.80
23339;BME280;11841;49.368;20.962;2023-03-20T14:31:17;95570.84;;;14.99;43.61
23339;BME280;11841;49.368;20.962;2023-03-20T14:33:48;95571.91;;;14.98;43.75
23339;BME280;11841;49.368;20.962;2023-03-20T14:36:24;95568.16;;;14.99;43.85
23339;BME280;11841;49.368;20.962;2023-03-20T14:46:53;95580.94;;;14.97;45.16
23339;BME280;11841;49.368;20.962;2023-03-20T14:52:13;95575.41;;;14.82;46.43
23339;BME280;11841;49.368;20.962;2023-03-20T14:54:51;95570.94;;;14.87;47.02
23339;BME280;11841;49.368;20.962;2023-03-20T14:57:30;95577.59;;;14.85;47.58
23339;BME280;11841;49.368;20.962;2023-03-20T15:00:05;95582.22;;;14.73;48.61
23339;BME280;11841;49.368;20.962;2023-03-20T15:02:44;95574.63;;;14.65;48.44